createdAt,value
2018-09-27T00:00:44.518Z,3.30
2018-09-27T00:03:13.922Z,4.50
2018-09-27T00:05:43.202Z,3.93
2018-09-27T00:08:12.547Z,3.58
2018-09-27T00:10:41.802Z,3.58
2018-09-27T00:13:11.083Z,4.10
2018-09-27T00:15:40.522Z,3.17
2018-09-27T00:18:09.943Z,4.62
2018-09-27T00:20:39.214Z,3.45
2018-09-27T00:23:08.537Z,3.17
2018-09-27T00:25:37.733Z,3.47
2018-09-27T00:28:06.980Z,3.55
2018-09-27T00:30:36.339Z,3.20
2018-09-27T00:33:05.669Z,3.20
2018-09-27T00:35:34.952Z,3.12
2018-09-27T00:38:04.269Z,3.05
2018-09-27T00:40:33.431Z,4.55
2018-09-27T00:43:02.663Z,3.10
2018-09-27T00:45:31.856Z,2.77
2018-09-27T00:48:01.281Z,2.90
2018-09-27T00:50:31.033Z,3.22
2018-09-27T00:53:00.284Z,2.70
2018-09-27T00:55:29.449Z,2.65
2018-09-27T00:57:58.723Z,2.75
2018-09-27T01:00:28.063Z,3.65
2018-09-27T01:02:57.435Z,3.62
2018-09-27T01:05:26.803Z,3.67
2018-09-27T01:07:56.121Z,3.08
2018-09-27T01:10:25.559Z,3.42
2018-09-27T01:12:54.746Z,2.85
2018-09-27T01:15:23.959Z,3.13
2018-09-27T01:17:53.123Z,4.67
2018-09-27T01:20:22.226Z,3.33
2018-09-27T01:22:51.383Z,2.62
2018-09-27T01:25:20.606Z,2.83
2018-09-27T01:27:49.943Z,2.92
2018-09-27T01:30:19.306Z,3.72
2018-09-27T01:32:48.438Z,2.55
2018-09-27T01:35:17.711Z,3.50
2018-09-27T01:37:46.839Z,3.25
2018-09-27T01:40:15.968Z,4.08
2018-09-27T01:42:45.160Z,4.28
2018-09-27T01:45:14.399Z,2.62
2018-09-27T01:47:43.624Z,2.60
2018-09-27T01:50:12.899Z,2.50
2018-09-27T01:52:42.127Z,3.10
2018-09-27T01:55:11.401Z,3.10
2018-09-27T01:57:40.596Z,2.67
2018-09-27T02:00:09.788Z,2.85
2018-09-27T02:02:38.980Z,2.70
2018-09-27T02:05:08.076Z,2.70
2018-09-27T02:07:37.198Z,2.80
2018-09-27T02:10:06.687Z,2.58
2018-09-27T02:12:35.903Z,3.05
2018-09-27T02:15:05.184Z,3.33
2018-09-27T02:17:34.408Z,2.72
2018-09-27T02:20:03.707Z,2.72
2018-09-27T02:22:32.874Z,2.87
2018-09-27T02:25:01.991Z,2.83
2018-09-27T02:27:31.170Z,2.87
2018-09-27T02:30:00.292Z,2.50
2018-09-27T02:32:29.550Z,2.58
2018-09-27T02:34:58.887Z,3.55
2018-09-27T02:37:28.258Z,4.10
2018-09-27T02:39:57.487Z,3.27
2018-09-27T02:42:26.656Z,5.60
2018-09-27T02:44:55.787Z,4.22
2018-09-27T02:47:24.944Z,4.00
2018-09-27T02:49:54.275Z,3.37
2018-09-27T02:52:23.439Z,3.37
2018-09-27T02:54:52.767Z,3.90
2018-09-27T02:57:22.160Z,3.55
2018-09-27T02:59:51.379Z,3.25
2018-09-27T03:02:20.540Z,3.20
2018-09-27T03:04:49.771Z,5.17
2018-09-27T03:07:19.046Z,4.37
2018-09-27T03:09:48.371Z,3.20
2018-09-27T03:12:17.638Z,3.30
2018-09-27T03:14:46.966Z,4.97
2018-09-27T03:17:16.140Z,3.50
2018-09-27T03:19:45.259Z,4.27
2018-09-27T03:22:14.428Z,4.42
2018-09-27T03:24:43.566Z,2.95
2018-09-27T03:27:12.852Z,3.10
2018-09-27T03:29:41.907Z,3.52
2018-09-27T03:32:11.147Z,3.15
2018-09-27T03:34:40.433Z,3.20
2018-09-27T03:37:09.852Z,3.55
2018-09-27T03:39:39.010Z,3.30
2018-09-27T03:42:08.648Z,3.08
2018-09-27T03:44:38.047Z,3.33
2018-09-27T03:47:07.324Z,3.20
2018-09-27T03:49:36.446Z,4.15
2018-09-27T03:52:05.604Z,3.83
2018-09-27T03:54:34.742Z,3.15
2018-09-27T03:57:03.935Z,3.30
2018-09-27T03:59:33.903Z,3.35
2018-09-27T04:02:03.052Z,5.17
2018-09-27T04:04:32.330Z,3.17
2018-09-27T04:07:01.439Z,3.00
2018-09-27T04:09:30.714Z,3.20
2018-09-27T04:12:00.046Z,3.95
2018-09-27T04:14:29.238Z,2.90
2018-09-27T04:16:58.515Z,2.80
2018-09-27T04:19:27.738Z,3.00
2018-09-27T04:21:56.937Z,3.02
2018-09-27T04:24:26.139Z,3.75
2018-09-27T04:26:55.410Z,2.67
2018-09-27T04:29:24.529Z,4.15
2018-09-27T04:31:53.787Z,3.10
2018-09-27T04:34:22.914Z,2.83
2018-09-27T04:36:52.297Z,2.73
2018-09-27T04:39:21.624Z,4.10
2018-09-27T04:41:50.895Z,3.12
2018-09-27T04:44:20.019Z,3.10
2018-09-27T04:46:49.207Z,3.62
2018-09-27T04:49:18.426Z,2.62
2018-09-27T04:51:47.660Z,2.87
2018-09-27T04:54:17.015Z,3.65
2018-09-27T04:56:46.414Z,2.60
2018-09-27T04:59:15.779Z,2.60
2018-09-27T05:01:44.912Z,3.62
2018-09-27T05:04:14.189Z,4.00
2018-09-27T05:06:43.303Z,3.50
2018-09-27T05:09:12.594Z,2.90
2018-09-27T05:11:41.915Z,2.95
2018-09-27T05:14:11.173Z,3.77
2018-09-27T05:16:40.603Z,3.20
2018-09-27T05:19:09.943Z,3.25
2018-09-27T05:21:39.437Z,3.50
2018-09-27T05:24:08.863Z,3.17
2018-09-27T05:26:38.109Z,2.92
2018-09-27T05:29:07.395Z,2.90
2018-09-27T05:31:36.720Z,2.95
2018-09-27T05:34:05.883Z,3.10
2018-09-27T05:36:35.106Z,3.70
2018-09-27T05:39:05.232Z,3.58
2018-09-27T05:41:34.523Z,2.60
2018-09-27T05:44:03.827Z,3.23
2018-09-27T05:46:32.974Z,3.35
2018-09-27T05:49:02.104Z,2.77
2018-09-27T05:51:31.459Z,2.70
2018-09-27T05:54:00.819Z,2.72
2018-09-27T05:56:29.982Z,2.80
2018-09-27T05:58:59.221Z,3.80
2018-09-27T06:01:28.424Z,4.28
2018-09-27T06:03:57.615Z,3.80
2018-09-27T06:06:26.882Z,4.77
2018-09-27T06:08:56.111Z,4.33
2018-09-27T06:11:25.509Z,5.90
2018-09-27T06:13:54.802Z,4.45
2018-09-27T06:16:23.972Z,6.05
2018-09-27T06:18:53.311Z,4.72
2018-09-27T06:21:22.484Z,4.37
2018-09-27T06:23:51.704Z,5.72
2018-09-27T06:26:20.975Z,4.37
2018-09-27T06:28:50.084Z,3.30
2018-09-27T06:31:19.272Z,3.70
2018-09-27T06:33:48.588Z,3.45
2018-09-27T06:36:17.996Z,4.60
2018-09-27T06:38:47.303Z,3.40
2018-09-27T06:41:16.516Z,3.17
2018-09-27T06:43:45.651Z,4.72
2018-09-27T06:46:14.836Z,4.90
2018-09-27T06:48:43.951Z,3.67
2018-09-27T06:51:13.083Z,3.72
2018-09-27T06:53:42.348Z,4.15
2018-09-27T06:56:11.724Z,3.27
2018-09-27T06:58:40.955Z,3.77
2018-09-27T07:01:10.440Z,4.10
2018-09-27T07:03:39.643Z,3.97
2018-09-27T07:06:08.892Z,5.35
2018-09-27T07:08:38.112Z,3.42
2018-09-27T07:11:07.387Z,4.37
2018-09-27T07:13:36.535Z,4.12
2018-09-27T07:16:05.692Z,4.17
2018-09-27T07:18:35.142Z,5.30
2018-09-27T07:21:04.478Z,5.60
2018-09-27T07:23:33.945Z,4.30
2018-09-27T07:26:03.448Z,5.08
2018-09-27T07:28:32.575Z,5.00
2018-09-27T07:31:01.940Z,4.10
2018-09-27T07:33:31.250Z,4.12
2018-09-27T07:36:00.576Z,4.40
2018-09-27T07:38:29.916Z,4.93
2018-09-27T07:40:59.188Z,5.50
2018-09-27T07:43:28.346Z,4.83
2018-09-27T07:45:58.038Z,6.75
2018-09-27T07:48:27.699Z,4.92
2018-09-27T07:50:58.838Z,5.83
2018-09-27T07:53:28.031Z,5.83
2018-09-27T07:55:57.439Z,5.40
2018-09-27T07:58:26.622Z,7.40
2018-09-27T08:00:55.922Z,6.22
2018-09-27T08:03:25.230Z,6.58
2018-09-27T08:05:54.399Z,7.17
2018-09-27T08:08:24.320Z,6.78
2018-09-27T08:10:54.619Z,6.58
2018-09-27T08:13:23.844Z,5.87
2018-09-27T08:15:53.860Z,8.00
2018-09-27T08:18:23.566Z,5.53
2018-09-27T08:20:52.899Z,6.53
2018-09-27T08:23:22.884Z,6.75
2018-09-27T08:25:53.188Z,7.67
2018-09-27T08:28:23.076Z,9.18
2018-09-27T08:30:52.307Z,6.97
2018-09-27T08:33:22.000Z,5.78
2018-09-27T08:35:51.156Z,6.37
2018-09-27T08:38:20.382Z,6.90
2018-09-27T08:40:49.800Z,6.53
2018-09-27T08:43:18.918Z,6.83
2018-09-27T08:45:48.193Z,7.70
2018-09-27T08:48:17.305Z,5.22
2018-09-27T08:50:47.297Z,6.10
2018-09-27T08:53:16.539Z,8.33
2018-09-27T08:55:46.272Z,6.70
2018-09-27T08:58:16.762Z,5.50
2018-09-27T09:00:45.978Z,6.37
2018-09-27T09:03:15.571Z,6.67
2018-09-27T09:05:45.878Z,7.90
2018-09-27T09:08:15.300Z,6.67
2018-09-27T09:10:44.740Z,7.83
2018-09-27T09:13:13.996Z,5.95
2018-09-27T09:15:43.627Z,7.12
2018-09-27T09:18:12.913Z,8.23
2018-09-27T09:20:42.817Z,7.55
2018-09-27T09:23:12.019Z,6.87
2018-09-27T09:25:41.258Z,8.78
2018-09-27T09:28:10.870Z,5.20
2018-09-27T09:30:40.246Z,4.17
2018-09-27T09:33:10.112Z,5.95
2018-09-27T09:35:40.639Z,6.28
2018-09-27T09:38:10.555Z,4.60
2018-09-27T09:40:39.803Z,7.37
2018-09-27T09:43:09.849Z,4.65
2018-09-27T09:45:39.827Z,6.10
2018-09-27T09:48:08.910Z,4.72
2018-09-27T09:50:39.463Z,5.28
2018-09-27T09:53:08.564Z,4.17
2018-09-27T09:55:38.216Z,4.75
2018-09-27T09:58:08.420Z,4.50
2018-09-27T10:00:38.111Z,4.10
2018-09-27T10:03:08.418Z,4.92
2018-09-27T10:05:37.601Z,5.35
2018-09-27T10:08:06.811Z,5.58
2018-09-27T10:10:35.975Z,6.47
2018-09-27T10:13:05.299Z,4.03
2018-09-27T10:15:34.582Z,4.58
2018-09-27T10:18:03.902Z,4.25
2018-09-27T10:20:33.071Z,6.05
2018-09-27T10:23:02.302Z,4.17
2018-09-27T10:25:31.570Z,3.80
2018-09-27T10:28:00.679Z,3.00
2018-09-27T10:30:29.871Z,3.85
2018-09-27T10:32:59.187Z,2.90
2018-09-27T10:35:28.461Z,2.77
2018-09-27T10:37:57.692Z,3.77
2018-09-27T10:40:26.851Z,3.10
2018-09-27T10:42:56.079Z,3.62
2018-09-27T10:45:25.763Z,3.90
2018-09-27T10:47:55.099Z,4.03
2018-09-27T10:50:24.466Z,4.72
2018-09-27T10:52:53.905Z,3.08
2018-09-27T10:55:23.167Z,3.20
2018-09-27T10:57:52.291Z,3.33
2018-09-27T11:00:23.319Z,5.25
2018-09-27T11:02:53.353Z,4.62
2018-09-27T11:05:22.633Z,3.40
2018-09-27T11:07:51.751Z,3.85
2018-09-27T11:10:20.719Z,3.77
2018-09-27T11:12:49.629Z,3.33
2018-09-27T11:15:19.014Z,4.40
2018-09-27T11:17:47.921Z,4.00
2018-09-27T11:20:16.845Z,3.40
2018-09-27T11:22:46.154Z,3.20
2018-09-27T11:25:15.260Z,2.40
2018-09-27T11:27:45.113Z,2.02
2018-09-27T11:30:19.473Z,5.40
2018-09-27T11:32:48.796Z,3.20
2018-09-27T11:35:18.522Z,3.25
2018-09-27T11:37:47.847Z,4.07
2018-09-27T11:40:17.681Z,3.15
2018-09-27T11:42:48.760Z,2.60
2018-09-27T11:45:18.104Z,4.25
2018-09-27T11:47:48.079Z,4.42
2018-09-27T11:50:19.244Z,2.92
2018-09-27T11:52:48.647Z,2.58
2018-09-27T11:55:18.943Z,3.85
2018-09-27T11:57:48.802Z,4.10
2018-09-27T12:00:18.114Z,3.10
2018-09-27T12:02:48.098Z,2.17
2018-09-27T12:05:17.626Z,2.95
2018-09-27T12:07:46.955Z,2.87
2018-09-27T12:10:16.109Z,2.35
2018-09-27T12:12:45.395Z,2.70
2018-09-27T12:15:14.498Z,2.47
2018-09-27T12:17:44.641Z,2.10
2018-09-27T12:20:14.258Z,3.40
2018-09-27T12:22:43.940Z,3.17
2018-09-27T12:25:13.151Z,3.85
2018-09-27T12:27:42.413Z,4.45
2018-09-27T12:30:11.640Z,3.25
2018-09-27T12:32:41.026Z,1.92
2018-09-27T12:35:10.251Z,2.95
2018-09-27T12:37:39.511Z,1.60
2018-09-27T12:40:08.635Z,3.10
2018-09-27T12:42:37.943Z,2.47
2018-09-27T12:45:07.274Z,3.13
2018-09-27T12:47:36.455Z,5.60
2018-09-27T12:50:06.351Z,2.62
2018-09-27T12:52:35.579Z,3.20
2018-09-27T12:55:04.943Z,2.72
2018-09-27T12:57:34.313Z,2.58
2018-09-27T13:00:03.647Z,4.05
2018-09-27T13:02:32.887Z,3.10
2018-09-27T13:05:02.051Z,1.50
2018-09-27T13:07:31.327Z,2.25
2018-09-27T13:10:00.669Z,2.60
2018-09-27T13:12:29.740Z,4.33
2018-09-27T13:14:59.088Z,2.12
2018-09-27T13:17:28.321Z,2.95
2018-09-27T13:19:57.644Z,2.20
2018-09-27T13:22:26.920Z,1.57
2018-09-27T13:24:56.175Z,2.70
2018-09-27T13:27:25.294Z,2.55
2018-09-27T13:29:54.464Z,2.33
2018-09-27T13:32:23.694Z,2.47
2018-09-27T13:34:53.227Z,2.37
2018-09-27T13:37:22.497Z,1.92
2018-09-27T13:39:51.786Z,1.95
2018-09-27T13:42:21.091Z,2.53
2018-09-27T13:44:50.274Z,2.00
2018-09-27T13:47:19.395Z,2.42
2018-09-27T13:49:48.525Z,2.25
2018-09-27T13:52:17.767Z,2.95
2018-09-27T13:54:47.007Z,4.03
2018-09-27T13:57:16.217Z,4.95
2018-09-27T13:59:45.524Z,2.60
2018-09-27T14:02:14.774Z,2.60
2018-09-27T14:04:44.002Z,5.55
2018-09-27T14:07:13.175Z,3.12
2018-09-27T14:09:42.503Z,2.50
2018-09-27T14:12:11.866Z,3.58
2018-09-27T14:14:41.262Z,2.42
2018-09-27T14:17:10.379Z,3.43
2018-09-27T14:19:39.496Z,2.70
2018-09-27T14:22:08.702Z,3.65
2018-09-27T14:24:37.870Z,3.27
2018-09-27T14:27:07.288Z,5.03
2018-09-27T14:29:36.676Z,2.47
2018-09-27T14:32:05.833Z,3.37
2018-09-27T14:34:34.953Z,3.50
2018-09-27T14:37:05.207Z,3.85
2018-09-27T14:39:34.483Z,2.50
2018-09-27T14:42:03.700Z,3.30
2018-09-27T14:44:32.875Z,2.70
2018-09-27T14:47:01.986Z,4.30
2018-09-27T14:49:31.063Z,2.98
2018-09-27T14:52:00.187Z,2.90
2018-09-27T14:54:29.451Z,4.57
2018-09-27T14:56:58.787Z,2.85
2018-09-27T14:59:28.097Z,3.60
2018-09-27T15:01:57.429Z,3.20
2018-09-27T15:04:26.608Z,3.40
2018-09-27T15:06:55.862Z,2.87
2018-09-27T15:09:25.055Z,4.97
2018-09-27T15:11:54.044Z,5.58
2018-09-27T15:14:23.379Z,3.65
2018-09-27T15:16:52.635Z,4.60
2018-09-27T15:19:21.971Z,8.35
2018-09-27T15:21:51.339Z,4.60
2018-09-27T15:24:20.575Z,4.35
2018-09-27T15:26:49.848Z,6.10
2018-09-27T15:29:18.979Z,4.67
2018-09-27T15:31:48.247Z,4.97
2018-09-27T15:34:17.247Z,3.33
2018-09-27T15:36:46.443Z,3.92
2018-09-27T15:39:15.854Z,4.67
2018-09-27T15:41:45.133Z,3.05
2018-09-27T15:44:14.467Z,4.85
2018-09-27T15:46:43.836Z,4.20
2018-09-27T15:49:13.070Z,3.80
2018-09-27T15:51:42.352Z,4.03
2018-09-27T15:54:11.667Z,4.17
2018-09-27T15:56:40.832Z,4.12
2018-09-27T15:59:10.058Z,3.90
2018-09-27T16:01:39.232Z,3.33
2018-09-27T16:04:08.570Z,3.55
2018-09-27T16:06:37.957Z,4.75
2018-09-27T16:09:08.788Z,5.33
2018-09-27T16:11:38.026Z,3.47
2018-09-27T16:14:07.294Z,3.05
2018-09-27T16:16:36.568Z,3.83
2018-09-27T16:19:05.888Z,4.60
2018-09-27T16:21:35.063Z,4.05
2018-09-27T16:24:04.186Z,3.83
2018-09-27T16:26:33.542Z,6.35
2018-09-27T16:29:02.892Z,4.28
2018-09-27T16:31:32.278Z,3.87
2018-09-27T16:34:01.590Z,4.53
2018-09-27T16:36:30.991Z,3.70
2018-09-27T16:39:00.167Z,4.62
2018-09-27T16:41:29.642Z,3.33
2018-09-27T16:43:58.951Z,4.40
2018-09-27T16:46:28.387Z,3.30
2018-09-27T16:48:57.691Z,3.72
2018-09-27T16:51:26.888Z,6.12
2018-09-27T16:53:56.056Z,4.22
2018-09-27T16:56:25.223Z,3.25
2018-09-27T16:58:54.375Z,5.78
2018-09-27T17:01:23.675Z,4.12
2018-09-27T17:03:52.827Z,5.55
2018-09-27T17:06:21.964Z,4.37
2018-09-27T17:08:51.447Z,5.12
2018-09-27T17:11:20.770Z,3.85
2018-09-27T17:13:50.042Z,3.30
2018-09-27T17:16:19.367Z,4.58
2018-09-27T17:18:48.748Z,4.00
2018-09-27T17:21:17.870Z,3.72
2018-09-27T17:23:47.096Z,4.70
2018-09-27T17:26:16.135Z,3.30
2018-09-27T17:28:45.252Z,4.00
2018-09-27T17:31:14.755Z,3.80
2018-09-27T17:33:44.160Z,5.60
2018-09-27T17:36:13.560Z,3.70
2018-09-27T17:38:42.762Z,4.70
2018-09-27T17:41:11.932Z,4.03
2018-09-27T17:43:41.263Z,4.22
2018-09-27T17:46:10.628Z,4.33
2018-09-27T17:48:39.871Z,3.80
2018-09-27T17:51:09.129Z,6.43
2018-09-27T17:53:38.268Z,4.90
2018-09-27T17:56:07.428Z,4.28
2018-09-27T17:58:36.705Z,4.10
2018-09-27T18:01:05.939Z,4.55
2018-09-27T18:03:35.248Z,4.45
2018-09-27T18:06:04.329Z,6.28
2018-09-27T18:08:33.738Z,5.20
2018-09-27T18:11:03.028Z,6.10
2018-09-27T18:13:32.253Z,4.10
2018-09-27T18:16:01.422Z,4.55
2018-09-27T18:18:30.643Z,4.65
2018-09-27T18:20:59.786Z,5.72
2018-09-27T18:23:28.936Z,4.08
2018-09-27T18:25:58.192Z,4.87
2018-09-27T18:28:27.489Z,6.30
2018-09-27T18:30:56.697Z,7.83
2018-09-27T18:33:26.038Z,4.92
2018-09-27T18:35:55.197Z,7.67
2018-09-27T18:38:24.425Z,6.03
2018-09-27T18:40:53.737Z,5.53
2018-09-27T18:43:23.066Z,7.87
2018-09-27T18:45:52.207Z,6.20
2018-09-27T18:48:21.488Z,4.58
2018-09-27T18:50:50.614Z,5.42
2018-09-27T18:53:20.367Z,5.50
2018-09-27T18:55:49.623Z,5.87
2018-09-27T18:58:18.697Z,6.17
2018-09-27T19:00:48.423Z,5.95
2018-09-27T19:03:18.400Z,4.75
2018-09-27T19:05:47.884Z,6.03
2018-09-27T19:08:17.298Z,4.37
2018-09-27T19:10:47.690Z,5.08
2018-09-27T19:13:17.370Z,6.20
2018-09-27T19:15:46.675Z,6.12
2018-09-27T19:18:16.511Z,7.05
2018-09-27T19:20:45.896Z,4.53
2018-09-27T19:23:15.299Z,6.78
2018-09-27T19:25:45.184Z,5.08
2018-09-27T19:28:14.402Z,5.22
2018-09-27T19:30:43.676Z,5.73
2018-09-27T19:33:12.699Z,5.58
2018-09-27T19:35:41.780Z,4.15
2018-09-27T19:38:11.909Z,4.53
2018-09-27T19:40:41.933Z,4.72
2018-09-27T19:43:11.920Z,5.12
2018-09-27T19:45:41.143Z,6.67
2018-09-27T19:48:10.456Z,6.75
2018-09-27T19:50:39.909Z,4.47
2018-09-27T19:53:08.923Z,5.35
2018-09-27T19:55:39.198Z,4.65
2018-09-27T19:58:08.643Z,5.92
2018-09-27T20:00:37.980Z,5.42
2018-09-27T20:03:08.625Z,7.12
2018-09-27T20:05:37.899Z,4.87
2018-09-27T20:08:08.411Z,6.17
2018-09-27T20:10:38.754Z,6.40
2018-09-27T20:13:08.466Z,6.93
2018-09-27T20:15:37.761Z,8.03
2018-09-27T20:18:07.909Z,7.30
2018-09-27T20:20:37.383Z,7.77
2018-09-27T20:23:07.058Z,7.83
2018-09-27T20:25:36.323Z,8.95
2018-09-27T20:28:05.723Z,7.10
2018-09-27T20:30:35.128Z,6.67
2018-09-27T20:33:04.396Z,6.85
2018-09-27T20:35:33.554Z,6.53
2018-09-27T20:38:02.995Z,6.30
2018-09-27T20:40:32.372Z,7.03
2018-09-27T20:43:01.691Z,6.47
2018-09-27T20:45:30.876Z,6.72
2018-09-27T20:48:00.331Z,6.92
2018-09-27T20:50:29.947Z,7.17
2018-09-27T20:53:00.200Z,8.55
2018-09-27T20:55:30.162Z,6.92
2018-09-27T20:57:59.450Z,7.03
2018-09-27T21:00:28.751Z,6.55
2018-09-27T21:02:57.935Z,7.30
2018-09-27T21:05:27.031Z,6.35
2018-09-27T21:07:56.894Z,6.95
2018-09-27T21:10:26.145Z,6.70
2018-09-27T21:12:55.414Z,7.75
2018-09-27T21:15:24.761Z,7.80
2018-09-27T21:17:54.027Z,7.08
2018-09-27T21:20:23.144Z,7.72
2018-09-27T21:22:52.306Z,9.00
2018-09-27T21:25:21.414Z,7.80
2018-09-27T21:27:50.598Z,6.92
2018-09-27T21:30:19.679Z,7.53
2018-09-27T21:32:48.790Z,7.10
2018-09-27T21:35:18.085Z,6.97
2018-09-27T21:37:47.311Z,6.53
2018-09-27T21:40:16.679Z,7.40
2018-09-27T21:42:45.910Z,8.38
2018-09-27T21:45:15.076Z,6.50
2018-09-27T21:47:44.303Z,6.62
2018-09-27T21:50:13.581Z,7.60
2018-09-27T21:52:42.598Z,6.25
2018-09-27T21:55:11.751Z,7.75
2018-09-27T21:57:40.889Z,6.92
2018-09-27T22:00:10.170Z,6.40
2018-09-27T22:02:39.463Z,6.55
2018-09-27T22:05:08.771Z,6.17
2018-09-27T22:07:37.888Z,6.90
2018-09-27T22:10:07.157Z,6.83
2018-09-27T22:12:36.252Z,5.75
2018-09-27T22:15:05.805Z,6.47
2018-09-27T22:17:35.055Z,5.65
2018-09-27T22:20:04.396Z,6.08
2018-09-27T22:22:33.659Z,5.10
2018-09-27T22:25:02.891Z,5.62
2018-09-27T22:27:32.148Z,6.05
2018-09-27T22:30:01.276Z,5.22
2018-09-27T22:32:30.505Z,4.42
2018-09-27T22:34:59.658Z,4.95
2018-09-27T22:37:28.763Z,5.15
2018-09-27T22:39:57.938Z,5.10
2018-09-27T22:42:27.166Z,4.78
2018-09-27T22:44:56.434Z,4.78
2018-09-27T22:47:25.873Z,4.50
2018-09-27T22:49:55.131Z,4.55
2018-09-27T22:52:24.359Z,5.33
2018-09-27T22:54:53.546Z,4.78
2018-09-27T22:57:22.769Z,4.70
2018-09-27T22:59:51.966Z,4.70
2018-09-27T23:02:21.247Z,5.57
2018-09-27T23:04:50.623Z,5.12
2018-09-27T23:07:19.851Z,5.37
2018-09-27T23:09:49.119Z,5.07
2018-09-27T23:12:18.251Z,4.30
2018-09-27T23:14:47.423Z,4.77
2018-09-27T23:17:16.528Z,4.42
2018-09-27T23:19:45.592Z,5.30
2018-09-27T23:22:14.844Z,5.20
2018-09-27T23:24:43.894Z,4.60
2018-09-27T23:27:13.021Z,4.10
2018-09-27T23:29:42.324Z,4.90
2018-09-27T23:32:11.603Z,5.17
2018-09-27T23:34:40.823Z,4.33
2018-09-27T23:37:10.189Z,5.75
2018-09-27T23:39:39.416Z,4.25
2018-09-27T23:42:08.590Z,4.40
2018-09-27T23:44:37.711Z,4.62
2018-09-27T23:47:06.882Z,4.47
2018-09-27T23:49:36.004Z,3.98
2018-09-27T23:52:05.195Z,4.00
2018-09-27T23:54:34.508Z,4.15
2018-09-27T23:57:03.771Z,4.00
2018-09-27T23:59:33.100Z,3.80
